createdAt,value
2022-12-01T17:02:10.694Z,160.00
2022-12-01T17:03:42.369Z,147.25
2022-12-01T17:05:14.066Z,172.75
2022-12-01T17:06:46.459Z,145.25
2022-12-01T17:08:18.343Z,145.25
2022-12-01T17:09:49.970Z,135.25
2022-12-01T17:11:21.602Z,134.25
2022-12-01T17:12:53.319Z,119.75
2022-12-01T17:14:25.295Z,115.50
2022-12-01T17:16:02.266Z,108.20
2022-12-01T17:17:34.317Z,110.40
2022-12-01T17:19:06.032Z,109.60
2022-12-01T17:20:37.823Z,428.25
2022-12-01T17:22:09.465Z,368.75
2022-12-01T17:23:41.239Z,274.25
2022-12-01T17:25:12.951Z,257.50
2022-12-01T17:26:45.061Z,240.33
2022-12-01T17:28:17.741Z,257.25
2022-12-01T17:29:49.518Z,235.67
2022-12-01T17:31:21.556Z,247.00
2022-12-01T17:32:53.425Z,227.00
2022-12-01T17:34:25.198Z,213.00
2022-12-01T17:36:02.520Z,218.67
2022-12-01T17:37:36.816Z,215.33
2022-12-01T17:39:08.505Z,223.67
2022-12-01T17:40:40.190Z,207.67
2022-12-01T17:42:11.855Z,202.67
2022-12-01T17:43:43.714Z,211.00
2022-12-01T17:45:15.603Z,194.25
2022-12-01T17:46:47.331Z,205.25
2022-12-01T17:48:21.487Z,192.00
2022-12-01T17:49:53.552Z,197.50
2022-12-01T17:51:25.199Z,183.25
2022-12-01T17:52:56.859Z,184.00
2022-12-01T17:54:28.586Z,171.25
2022-12-01T17:56:00.258Z,175.25
2022-12-01T17:57:31.952Z,166.25
2022-12-01T17:59:03.722Z,180.75
2022-12-01T18:00:35.421Z,195.00
2022-12-01T18:02:07.363Z,196.25
2022-12-01T18:03:39.118Z,199.00
2022-12-01T18:05:11.582Z,193.00
2022-12-01T18:06:43.456Z,193.00
2022-12-01T18:08:15.173Z,209.75
2022-12-01T18:09:47.017Z,177.25
2022-12-01T18:11:18.811Z,181.25
2022-12-01T18:12:50.617Z,186.00
2022-12-01T18:14:23.120Z,190.75
2022-12-01T18:15:54.844Z,177.25
2022-12-01T18:17:26.699Z,193.25
2022-12-01T18:19:00.561Z,179.25
2022-12-01T18:20:32.262Z,179.75
2022-12-01T18:22:04.205Z,191.75
2022-12-01T18:23:36.805Z,191.00
2022-12-01T18:25:09.548Z,198.75
2022-12-01T18:26:41.604Z,209.50
2022-12-01T18:28:13.892Z,194.25
2022-12-01T18:29:45.770Z,201.25
2022-12-01T18:31:17.484Z,177.75
2022-12-01T18:32:49.577Z,184.75
2022-12-01T18:34:21.308Z,179.00
2022-12-01T18:35:53.006Z,182.25
2022-12-01T18:37:24.684Z,242.00
2022-12-01T18:38:57.454Z,191.00
2022-12-01T18:40:29.125Z,176.25
2022-12-01T18:42:01.059Z,170.75
2022-12-01T18:43:32.791Z,187.50
2022-12-01T18:45:04.711Z,189.75
2022-12-01T18:46:37.103Z,186.00
2022-12-01T18:48:08.931Z,184.75
2022-12-01T18:49:40.581Z,186.75
2022-12-01T18:51:12.282Z,191.50
2022-12-01T18:52:44.045Z,184.50
2022-12-01T18:54:16.104Z,181.50
2022-12-01T18:55:47.776Z,196.75
2022-12-01T18:57:21.183Z,177.75
2022-12-01T18:58:56.623Z,174.50
2022-12-01T19:00:28.373Z,170.75
2022-12-01T19:02:00.636Z,167.50
2022-12-01T19:03:32.501Z,174.00
2022-12-01T19:05:04.492Z,155.25
2022-12-01T19:06:37.633Z,156.00
2022-12-01T19:08:09.335Z,184.25
2022-12-01T19:09:42.025Z,179.00
2022-12-01T19:11:14.456Z,161.50
2022-12-01T19:12:46.886Z,387.25
2022-12-01T19:14:18.808Z,219.33
2022-12-01T19:15:50.992Z,232.00
2022-12-01T19:17:23.230Z,193.75
2022-12-01T19:18:54.911Z,189.50
2022-12-01T19:20:26.624Z,176.50
2022-12-01T19:21:58.298Z,181.75
2022-12-01T19:23:30.007Z,185.25
2022-12-01T19:25:01.756Z,185.75
2022-12-01T19:26:33.467Z,194.25
2022-12-01T19:28:05.214Z,186.00
2022-12-01T19:29:36.905Z,174.75
2022-12-01T19:31:11.234Z,187.25
2022-12-01T19:32:43.572Z,192.50
2022-12-01T19:34:15.236Z,191.50
2022-12-01T19:35:47.039Z,186.00
2022-12-01T19:37:19.983Z,185.00
2022-12-01T19:38:51.949Z,179.25
2022-12-01T19:40:23.720Z,175.50
2022-12-01T19:41:56.902Z,316.25
2022-12-01T19:43:28.659Z,252.75
2022-12-01T19:45:01.185Z,204.00
2022-12-01T19:46:33.010Z,224.33
2022-12-01T19:48:05.301Z,212.00
2022-12-01T19:49:37.307Z,202.75
2022-12-01T19:51:19.619Z,179.00
2022-12-01T19:52:51.369Z,183.00
2022-12-01T19:54:23.159Z,164.75
2022-12-01T19:55:54.928Z,180.00
2022-12-01T19:57:28.060Z,173.50
2022-12-01T19:58:59.767Z,158.00
2022-12-01T20:00:31.757Z,181.50
2022-12-01T20:02:03.590Z,175.75
2022-12-01T20:03:35.531Z,196.25
2022-12-01T20:05:07.686Z,182.00
2022-12-01T20:06:39.468Z,199.25
2022-12-01T20:08:13.924Z,185.75
2022-12-01T20:09:49.788Z,187.50
2022-12-01T20:11:22.006Z,165.25
2022-12-01T20:12:53.793Z,167.50
2022-12-01T20:14:25.534Z,171.00
2022-12-01T20:16:08.659Z,175.25
2022-12-01T20:17:40.430Z,155.50
2022-12-01T20:19:12.313Z,153.25
2022-12-01T20:20:43.995Z,155.75
2022-12-01T20:22:15.721Z,160.50
2022-12-01T20:23:51.918Z,172.75
2022-12-01T20:25:23.659Z,153.50
2022-12-01T20:26:56.971Z,170.75
2022-12-01T20:28:28.857Z,172.75
2022-12-01T20:30:00.512Z,174.00
2022-12-01T20:31:32.627Z,166.00
2022-12-01T20:33:04.334Z,160.25
2022-12-01T20:34:36.158Z,156.00
2022-12-01T20:36:08.034Z,150.25
2022-12-01T20:37:39.787Z,153.25
2022-12-01T20:39:11.645Z,153.25
2022-12-01T20:40:43.356Z,135.75
2022-12-01T20:42:15.184Z,154.00
2022-12-01T20:43:46.826Z,140.00
2022-12-01T20:45:18.577Z,138.25
2022-12-01T20:46:50.300Z,139.50
2022-12-01T20:48:21.948Z,138.00
2022-12-01T20:49:58.167Z,158.75
2022-12-01T20:51:33.241Z,178.50
2022-12-01T20:53:04.921Z,174.25
2022-12-01T20:54:36.535Z,164.00
2022-12-01T20:56:10.987Z,154.00
2022-12-01T20:57:42.753Z,166.75
2022-12-01T20:59:14.447Z,148.00
2022-12-01T21:00:46.207Z,153.50
2022-12-01T21:02:18.026Z,153.50
2022-12-01T21:03:50.937Z,147.25
2022-12-01T21:05:24.543Z,159.75
2022-12-01T21:06:57.112Z,139.00
2022-12-01T21:08:28.883Z,148.50
2022-12-01T21:10:00.835Z,140.50
2022-12-01T21:11:59.780Z,145.25
2022-12-01T21:13:43.537Z,140.50
2022-12-01T21:15:29.496Z,131.75
2022-12-01T21:17:23.666Z,134.00
2022-12-01T21:18:56.099Z,385.25
2022-12-01T21:20:32.849Z,224.00
2022-12-01T21:22:10.524Z,237.33
2022-12-01T21:23:42.185Z,199.00
2022-12-01T21:25:18.814Z,175.25
2022-12-01T21:27:18.384Z,161.50
2022-12-01T21:28:50.041Z,171.50
2022-12-01T21:30:24.915Z,151.00
2022-12-01T21:31:59.217Z,147.25
2022-12-01T21:33:35.088Z,147.25
2022-12-01T21:35:16.883Z,124.75
2022-12-01T21:36:49.388Z,131.25
2022-12-01T21:38:22.306Z,138.75
2022-12-01T21:39:55.957Z,123.00
2022-12-01T21:41:28.711Z,129.75
2022-12-01T21:43:06.204Z,121.00
2022-12-01T21:44:38.020Z,113.00
2022-12-01T21:46:16.376Z,112.40
2022-12-01T21:47:48.179Z,125.75
2022-12-01T21:49:21.466Z,118.50
2022-12-01T21:50:58.475Z,135.25
2022-12-01T21:52:36.807Z,124.50
2022-12-01T21:54:12.464Z,127.75
2022-12-01T21:55:45.391Z,133.25
2022-12-01T21:57:43.021Z,116.00
2022-12-01T21:59:24.142Z,126.25
2022-12-01T22:00:57.442Z,113.50
2022-12-01T22:02:50.306Z,118.50
2022-12-01T22:04:31.278Z,116.25
2022-12-01T22:06:29.212Z,127.50
2022-12-01T22:08:27.122Z,133.50
2022-12-01T22:09:58.816Z,140.75
2022-12-01T22:11:31.031Z,123.75
2022-12-01T22:13:02.691Z,130.75
2022-12-01T22:14:35.055Z,147.00
2022-12-01T22:16:29.371Z,132.75
2022-12-01T22:18:01.065Z,136.75
2022-12-01T22:19:34.227Z,123.00
2022-12-01T22:21:47.805Z,128.50
2022-12-01T22:23:20.794Z,132.25
2022-12-01T22:24:59.751Z,119.50
2022-12-01T22:26:31.550Z,101.50
2022-12-01T22:28:03.377Z,126.75
2022-12-01T22:29:43.839Z,114.00
2022-12-01T22:31:15.853Z,108.00
2022-12-01T22:32:56.866Z,119.80
2022-12-01T22:34:28.533Z,104.60
2022-12-01T22:36:00.257Z,102.00
2022-12-01T22:37:38.283Z,100.25
2022-12-01T22:39:30.799Z,104.75
2022-12-01T22:41:03.466Z,89.00
2022-12-01T22:42:35.430Z,94.75
2022-12-01T22:44:07.395Z,100.25
2022-12-01T22:45:39.074Z,94.00
2022-12-01T22:47:10.816Z,96.00
2022-12-01T22:48:44.654Z,100.50
2022-12-01T22:50:31.812Z,91.75
2022-12-01T22:52:19.438Z,91.50
2022-12-01T22:53:53.780Z,80.00
2022-12-01T22:55:25.436Z,75.50
2022-12-01T22:57:33.161Z,85.00
2022-12-01T22:59:22.269Z,102.25
2022-12-01T23:00:54.108Z,101.50
2022-12-01T23:02:34.955Z,101.40
2022-12-01T23:04:35.578Z,106.60
2022-12-01T23:06:27.676Z,109.80
2022-12-01T23:07:59.541Z,118.60
2022-12-01T23:09:34.363Z,103.40
2022-12-01T23:11:06.876Z,108.40
2022-12-01T23:12:38.656Z,103.50
2022-12-01T23:14:15.608Z,95.75
2022-12-01T23:15:48.763Z,98.50
2022-12-01T23:17:27.507Z,112.00
2022-12-01T23:18:59.166Z,116.00
2022-12-01T23:20:32.965Z,113.00
2022-12-01T23:22:04.578Z,120.40
2022-12-01T23:23:36.727Z,110.40
2022-12-01T23:25:16.088Z,123.75
2022-12-01T23:26:47.758Z,120.50
2022-12-01T23:28:19.663Z,132.75
2022-12-01T23:29:51.367Z,119.00
2022-12-01T23:31:23.260Z,111.50
2022-12-01T23:33:16.683Z,122.60
2022-12-01T23:34:48.647Z,110.80
